Terminal Aerodrome Forecast
Issued by NWS

Home | Current Version | Previous Version | Text Only | Print | Product List | Glossary On
Versions: 1 2 3 4 5 6 7 8 9 10 11 12 13 14 15 16 17 18 19
000
FTUS43 KFGF 090537 RRA
TAFDVL
TAF
KDVL 090537Z 0906/1006 29008KT P6SM -SN BKN024
      TEMPO 0906/0910 BKN016
     FM091800 29006KT P6SM BKN025
     FM091900 29006KT P6SM SCT035
     FM100500 28004KT P6SM BKN035=

USA.gov is the U.S. government's official web portal to all federal, state and local government web resources and services.